Lambert St Louis International Airport
KSTL : now visible

Airfield :











YOU CAN JOIN US ON...

 
LOGIN :

Register | Disclaimer

   EN    FR    IT 

 









Legend :    VFR   Marginal VFR   IFR   Intensive IFR   Very Intensive IFR
Visi :
Ceiling :
>= 8 km
>= 3000ft
5 to 8 km
1000 to 3000 ft
1500m to 5 km
500 to 1000 ft
800 to 1500m
200 to 500 ft
< 800m
< 200 ft
Symbols :   Thunderstorms  Fog  Heavy snow  Heavy precipitations  Wind > 20 kt






- Airport Elevation : 618 ft
- IATA code : STL


KSTL - Lambert St Louis International

CURRENT METAR :
  • 171051Z 25016G29KT 10SM FEW015 22/10 A2971 RMK AO2 PK WND 26029/1049 SLP051 T02170100

EXPIRED METARs :
  • 170951Z 22012G21KT 10SM CLR 22/13 A2968 RMK AO2 SLP042 T02170133
  • 170851Z 22014G23KT 10SM CLR 22/14 A2968 RMK AO2 SLP040 T02220144 53002
  • 170751Z 21013KT 10SM FEW015 22/16 A2967 RMK AO2 SLP034 T02170156
  • 170651Z 21015G24KT 10SM FEW015 22/16 A2967 RMK AO2 SLP035 T02170161

TAF KSTL
Valid from the 17 at 12:00 until the 18 at 18:00 UTC


171120Z 1712/1818 25015G25KT P6SM SKC
FM171600 28018G28KT P6SM SKC
FM172300 29011G19KT P6SM SKC
FM180100 VRB05KT P6SM SKC
FM180700 09007KT P6SM SCT250
KZKC FIR / North America



MET'MAP, your aeronautical weather chart ! - Copyright ORBIFLY December 2007 - Disclaimer

ORBIFLY MET'MAP TEAM :

Programming & Development : Alexandra Zaïnal
Original concept : Baudouin d'Aumeries
Technical & hardware support : Manuel Goepfert
Assistance : Marc-Olivier Méhu




SOURCES & CREDITS :

   NOAA       Earth
Advisory